sensor_id;sensor_type;location;lat;lon;timestamp;pressure;altitude;pressure_sealevel;temperature;humidity
13612;BME280;6877;51.436;6.774;2022-08-21T00:00:10;101361.28;;;17.46;68.47
13612;BME280;6877;51.436;6.774;2022-08-21T00:02:59;101353.31;;;17.48;68.59
13612;BME280;6877;51.436;6.774;2022-08-21T00:05:40;101354.91;;;17.52;68.76
13612;BME280;6877;51.436;6.774;2022-08-21T00:08:13;101361.94;;;17.53;68.85
13612;BME280;6877;51.436;6.774;2022-08-21T00:10:46;101348.81;;;17.50;68.57
13612;BME280;6877;51.436;6.774;2022-08-21T00:13:18;101347.16;;;17.47;68.71
13612;BME280;6877;51.436;6.774;2022-08-21T00:15:47;101341.91;;;17.46;68.82
13612;BME280;6877;51.436;6.774;2022-08-21T00:18:19;101335.75;;;17.45;68.67
13612;BME280;6877;51.436;6.774;2022-08-21T00:20:51;101339.13;;;17.49;68.85
13612;BME280;6877;51.436;6.774;2022-08-21T00:23:24;101342.53;;;17.52;68.88
13612;BME280;6877;51.436;6.774;2022-08-21T00:25:56;101339.03;;;17.52;68.76
13612;BME280;6877;51.436;6.774;2022-08-21T00:28:28;101330.19;;;17.53;68.83
13612;BME280;6877;51.436;6.774;2022-08-21T00:30:54;101323.25;;;17.49;69.10
13612;BME280;6877;51.436;6.774;2022-08-21T00:33:21;101322.72;;;17.41;69.26
13612;BME280;6877;51.436;6.774;2022-08-21T00:35:47;101327.59;;;17.28;69.74
13612;BME280;6877;51.436;6.774;2022-08-21T00:38:19;101326.19;;;17.18;69.92
13612;BME280;6877;51.436;6.774;2022-08-21T00:40:57;101320.38;;;17.08;70.50
13612;BME280;6877;51.436;6.774;2022-08-21T00:43:33;101328.53;;;17.02;71.30
13612;BME280;6877;51.436;6.774;2022-08-21T00:46:00;101333.25;;;16.94;71.63
13612;BME280;6877;51.436;6.774;2022-08-21T00:48:32;101328.22;;;16.86;72.27
13612;BME280;6877;51.436;6.774;2022-08-21T00:51:14;101325.88;;;16.78;72.80
13612;BME280;6877;51.436;6.774;2022-08-21T00:53:46;101330.59;;;16.67;73.03
13612;BME280;6877;51.436;6.774;2022-08-21T00:56:13;101320.31;;;16.59;74.22
13612;BME280;6877;51.436;6.774;2022-08-21T00:58:45;101322.22;;;16.56;74.98
13612;BME280;6877;51.436;6.774;2022-08-21T01:01:12;101325.06;;;16.50;74.85
13612;BME280;6877;51.436;6.774;2022-08-21T01:03:39;101323.53;;;16.42;75.19
13612;BME280;6877;51.436;6.774;2022-08-21T01:06:11;101320.28;;;16.34;75.55
13612;BME280;6877;51.436;6.774;2022-08-21T01:08:38;101327.59;;;16.26;75.53
13612;BME280;6877;51.436;6.774;2022-08-21T01:11:10;101322.38;;;16.25;75.65
13612;BME280;6877;51.436;6.774;2022-08-21T01:13:42;101320.59;;;16.25;76.17
13612;BME280;6877;51.436;6.774;2022-08-21T01:16:19;101324.28;;;16.19;75.85
13612;BME280;6877;51.436;6.774;2022-08-21T01:18:52;101324.56;;;16.12;76.53
13612;BME280;6877;51.436;6.774;2022-08-21T01:21:24;101329.28;;;16.02;76.01
13612;BME280;6877;51.436;6.774;2022-08-21T01:23:57;101333.06;;;15.93;76.52
13612;BME280;6877;51.436;6.774;2022-08-21T01:26:28;101332.31;;;15.88;76.59
13612;BME280;6877;51.436;6.774;2022-08-21T01:29:09;101334.25;;;15.83;76.74
13612;BME280;6877;51.436;6.774;2022-08-21T01:31:42;101326.47;;;15.79;76.99
13612;BME280;6877;51.436;6.774;2022-08-21T01:34:15;101336.16;;;15.78;77.83
13612;BME280;6877;51.436;6.774;2022-08-21T01:36:47;101335.25;;;15.79;78.10
13612;BME280;6877;51.436;6.774;2022-08-21T01:39:15;101328.25;;;15.78;78.10
13612;BME280;6877;51.436;6.774;2022-08-21T01:41:47;101336.16;;;15.78;78.23
13612;BME280;6877;51.436;6.774;2022-08-21T01:44:13;101337.13;;;15.75;77.93
13612;BME280;6877;51.436;6.774;2022-08-21T01:46:44;101332.91;;;15.70;77.85
13612;BME280;6877;51.436;6.774;2022-08-21T01:49:16;101331.31;;;15.63;78.14
13612;BME280;6877;51.436;6.774;2022-08-21T01:51:48;101333.25;;;15.58;78.44
13612;BME280;6877;51.436;6.774;2022-08-21T01:54:20;101329.69;;;15.59;78.77
13612;BME280;6877;51.436;6.774;2022-08-21T01:56:53;101324.34;;;15.60;78.90
13612;BME280;6877;51.436;6.774;2022-08-21T01:59:26;101329.69;;;15.59;78.67
13612;BME280;6877;51.436;6.774;2022-08-21T02:01:57;101331.50;;;15.57;78.54
13612;BME280;6877;51.436;6.774;2022-08-21T02:04:29;101324.59;;;15.52;78.80
13612;BME280;6877;51.436;6.774;2022-08-21T02:07:02;101328.16;;;15.51;79.09
13612;BME280;6877;51.436;6.774;2022-08-21T02:09:34;101327.31;;;15.51;79.36
13612;BME280;6877;51.436;6.774;2022-08-21T02:12:06;101330.81;;;15.50;79.32
13612;BME280;6877;51.436;6.774;2022-08-21T02:14:38;101326.50;;;15.47;79.57
13612;BME280;6877;51.436;6.774;2022-08-21T02:17:09;101326.41;;;15.50;80.08
13612;BME280;6877;51.436;6.774;2022-08-21T02:19:41;101324.41;;;15.59;79.83
13612;BME280;6877;51.436;6.774;2022-08-21T02:22:13;101318.03;;;15.67;79.87
13612;BME280;6877;51.436;6.774;2022-08-21T02:24:39;101314.31;;;15.73;79.57
13612;BME280;6877;51.436;6.774;2022-08-21T02:27:11;101317.69;;;15.78;79.82
13612;BME280;6877;51.436;6.774;2022-08-21T02:29:42;101316.06;;;15.74;79.81
13612;BME280;6877;51.436;6.774;2022-08-21T02:32:09;101311.81;;;15.70;79.98
13612;BME280;6877;51.436;6.774;2022-08-21T02:34:40;101315.50;;;15.63;79.85
13612;BME280;6877;51.436;6.774;2022-08-21T02:37:12;101318.31;;;15.57;79.98
13612;BME280;6877;51.436;6.774;2022-08-21T02:39:43;101314.97;;;15.51;80.89
13612;BME280;6877;51.436;6.774;2022-08-21T02:42:15;101311.56;;;15.48;81.50
13612;BME280;6877;51.436;6.774;2022-08-21T02:44:42;101316.97;;;15.43;81.42
13612;BME280;6877;51.436;6.774;2022-08-21T02:47:14;101318.06;;;15.36;81.70
13612;BME280;6877;51.436;6.774;2022-08-21T02:49:46;101302.34;;;15.32;81.92
13612;BME280;6877;51.436;6.774;2022-08-21T02:52:17;101311.34;;;15.26;82.09
13612;BME280;6877;51.436;6.774;2022-08-21T02:54:49;101309.66;;;15.22;82.50
13612;BME280;6877;51.436;6.774;2022-08-21T02:57:15;101315.13;;;15.16;82.34
13612;BME280;6877;51.436;6.774;2022-08-21T02:59:47;101310.81;;;15.13;82.65
13612;BME280;6877;51.436;6.774;2022-08-21T03:02:18;101308.28;;;15.09;83.06
13612;BME280;6877;51.436;6.774;2022-08-21T03:04:51;101313.56;;;15.09;83.19
13612;BME280;6877;51.436;6.774;2022-08-21T03:07:22;101309.22;;;15.07;83.18
13612;BME280;6877;51.436;6.774;2022-08-21T03:09:54;101309.25;;;15.06;83.39
13612;BME280;6877;51.436;6.774;2022-08-21T03:12:26;101303.19;;;15.02;83.62
13612;BME280;6877;51.436;6.774;2022-08-21T03:14:57;101308.56;;;14.99;83.51
13612;BME280;6877;51.436;6.774;2022-08-21T03:17:24;101306.91;;;14.95;83.80
13612;BME280;6877;51.436;6.774;2022-08-21T03:19:56;101299.97;;;14.93;84.17
13612;BME280;6877;51.436;6.774;2022-08-21T03:22:28;101302.69;;;14.90;83.92
13612;BME280;6877;51.436;6.774;2022-08-21T03:24:59;101308.88;;;14.89;84.31
13612;BME280;6877;51.436;6.774;2022-08-21T03:27:32;101309.75;;;14.88;84.22
13612;BME280;6877;51.436;6.774;2022-08-21T03:30:01;101304.63;;;14.83;84.61
13612;BME280;6877;51.436;6.774;2022-08-21T03:32:33;101308.28;;;14.77;84.72
13612;BME280;6877;51.436;6.774;2022-08-21T03:35:05;101304.09;;;14.70;85.07
13612;BME280;6877;51.436;6.774;2022-08-21T03:37:36;101310.28;;;14.68;85.54
13612;BME280;6877;51.436;6.774;2022-08-21T03:40:10;101305.94;;;14.67;85.49
13612;BME280;6877;51.436;6.774;2022-08-21T03:42:42;101305.97;;;14.65;85.39
13612;BME280;6877;51.436;6.774;2022-08-21T03:45:16;101308.69;;;14.62;85.31
13612;BME280;6877;51.436;6.774;2022-08-21T03:47:57;101304.34;;;14.59;85.33
13612;BME280;6877;51.436;6.774;2022-08-21T03:50:32;101314.09;;;14.57;85.77
13612;BME280;6877;51.436;6.774;2022-08-21T03:53:04;101308.06;;;14.52;85.81
13612;BME280;6877;51.436;6.774;2022-08-21T03:55:35;101311.66;;;14.48;85.67
13612;BME280;6877;51.436;6.774;2022-08-21T03:58:07;101316.13;;;14.45;85.81
13612;BME280;6877;51.436;6.774;2022-08-21T04:00:34;101319.66;;;14.44;85.99
13612;BME280;6877;51.436;6.774;2022-08-21T04:03:05;101321.47;;;14.42;86.05
13612;BME280;6877;51.436;6.774;2022-08-21T04:05:37;101319.84;;;14.37;86.29
13612;BME280;6877;51.436;6.774;2022-08-21T04:08:09;101329.56;;;14.34;86.19
13612;BME280;6877;51.436;6.774;2022-08-21T04:10:41;101334.00;;;14.32;86.29
13612;BME280;6877;51.436;6.774;2022-08-21T04:13:14;101333.22;;;14.28;86.26
13612;BME280;6877;51.436;6.774;2022-08-21T04:15:46;101335.97;;;14.24;86.53
13612;BME280;6877;51.436;6.774;2022-08-21T04:18:12;101343.13;;;14.19;86.78
13612;BME280;6877;51.436;6.774;2022-08-21T04:20:46;101344.00;;;14.18;87.06
13612;BME280;6877;51.436;6.774;2022-08-21T04:23:20;101336.94;;;14.20;87.41
13612;BME280;6877;51.436;6.774;2022-08-21T04:25:47;101344.78;;;14.21;87.34
13612;BME280;6877;51.436;6.774;2022-08-21T04:28:20;101335.03;;;14.26;87.25
13612;BME280;6877;51.436;6.774;2022-08-21T04:30:51;101336.75;;;14.27;87.15
13612;BME280;6877;51.436;6.774;2022-08-21T04:33:23;101338.34;;;14.34;87.12
13612;BME280;6877;51.436;6.774;2022-08-21T04:35:55;101345.34;;;14.34;87.04
13612;BME280;6877;51.436;6.774;2022-08-21T04:38:26;101341.06;;;14.31;87.18
13612;BME280;6877;51.436;6.774;2022-08-21T04:40:58;101338.56;;;14.25;87.03
13612;BME280;6877;51.436;6.774;2022-08-21T04:43:30;101335.13;;;14.22;87.44
13612;BME280;6877;51.436;6.774;2022-08-21T04:46:01;101331.69;;;14.20;87.74
13612;BME280;6877;51.436;6.774;2022-08-21T04:48:33;101337.03;;;14.17;87.98
13612;BME280;6877;51.436;6.774;2022-08-21T04:51:10;101336.16;;;14.16;88.20
13612;BME280;6877;51.436;6.774;2022-08-21T04:53:45;101332.63;;;14.17;88.10
13612;BME280;6877;51.436;6.774;2022-08-21T04:56:23;101342.22;;;14.20;88.12
13612;BME280;6877;51.436;6.774;2022-08-21T04:58:59;101333.41;;;14.21;88.22
13612;BME280;6877;51.436;6.774;2022-08-21T05:01:35;101339.53;;;14.21;88.42
13612;BME280;6877;51.436;6.774;2022-08-21T05:04:11;101341.28;;;14.22;88.54
13612;BME280;6877;51.436;6.774;2022-08-21T05:06:45;101344.69;;;14.26;88.53
13612;BME280;6877;51.436;6.774;2022-08-21T05:09:21;101343.72;;;14.30;88.52
13612;BME280;6877;51.436;6.774;2022-08-21T05:11:48;101339.34;;;14.29;88.18
13612;BME280;6877;51.436;6.774;2022-08-21T05:14:15;101340.16;;;14.31;88.26
13612;BME280;6877;51.436;6.774;2022-08-21T05:16:47;101345.44;;;14.31;88.25
13612;BME280;6877;51.436;6.774;2022-08-21T05:19:19;101346.28;;;14.33;88.55
13612;BME280;6877;51.436;6.774;2022-08-21T05:21:50;101343.63;;;14.33;88.32
13612;BME280;6877;51.436;6.774;2022-08-21T05:24:22;101346.28;;;14.33;88.16
13612;BME280;6877;51.436;6.774;2022-08-21T05:26:54;101357.63;;;14.35;88.27
13612;BME280;6877;51.436;6.774;2022-08-21T05:29:26;101347.09;;;14.35;88.22
13612;BME280;6877;51.436;6.774;2022-08-21T05:31:57;101356.78;;;14.34;88.29
13612;BME280;6877;51.436;6.774;2022-08-21T05:34:29;101353.22;;;14.35;88.17
13612;BME280;6877;51.436;6.774;2022-08-21T05:36:56;101361.00;;;14.40;88.30
13612;BME280;6877;51.436;6.774;2022-08-21T05:39:23;101355.63;;;14.45;88.12
13612;BME280;6877;51.436;6.774;2022-08-21T05:41:49;101352.03;;;14.49;87.64
13612;BME280;6877;51.436;6.774;2022-08-21T05:44:15;101351.03;;;14.54;87.40
13612;BME280;6877;51.436;6.774;2022-08-21T05:46:42;101350.03;;;14.58;86.62
13612;BME280;6877;51.436;6.774;2022-08-21T05:49:13;101353.53;;;14.60;86.39
13612;BME280;6877;51.436;6.774;2022-08-21T05:51:45;101356.97;;;14.63;86.21
13612;BME280;6877;51.436;6.774;2022-08-21T05:54:16;101349.88;;;14.65;86.22
13612;BME280;6877;51.436;6.774;2022-08-21T05:56:48;101357.69;;;14.69;85.76
13612;BME280;6877;51.436;6.774;2022-08-21T05:59:20;101354.94;;;14.74;85.56
13612;BME280;6877;51.436;6.774;2022-08-21T06:01:46;101354.78;;;14.78;85.46
13612;BME280;6877;51.436;6.774;2022-08-21T06:04:18;101352.00;;;14.84;84.75
13612;BME280;6877;51.436;6.774;2022-08-21T06:06:50;101346.56;;;14.91;84.71
13612;BME280;6877;51.436;6.774;2022-08-21T06:09:21;101344.59;;;14.99;83.73
13612;BME280;6877;51.436;6.774;2022-08-21T06:11:48;101341.72;;;15.06;83.33
13612;BME280;6877;51.436;6.774;2022-08-21T06:14:19;101348.59;;;15.14;83.37
13612;BME280;6877;51.436;6.774;2022-08-21T06:16:51;101345.72;;;15.21;82.41
13612;BME280;6877;51.436;6.774;2022-08-21T06:19:17;101349.81;;;15.32;81.84
13612;BME280;6877;51.436;6.774;2022-08-21T06:21:49;101352.25;;;15.39;80.88
13612;BME280;6877;51.436;6.774;2022-08-21T06:24:20;101348.44;;;15.49;80.34
13612;BME280;6877;51.436;6.774;2022-08-21T06:26:52;101347.25;;;15.60;79.59
13612;BME280;6877;51.436;6.774;2022-08-21T06:29:24;101349.63;;;15.69;79.13
13612;BME280;6877;51.436;6.774;2022-08-21T06:31:56;101351.06;;;15.79;77.81
13612;BME280;6877;51.436;6.774;2022-08-21T06:34:28;101357.00;;;15.87;77.41
13612;BME280;6877;51.436;6.774;2022-08-21T06:36:59;101347.97;;;15.94;76.53
13612;BME280;6877;51.436;6.774;2022-08-21T06:39:26;101360.84;;;16.05;75.55
13612;BME280;6877;51.436;6.774;2022-08-21T06:41:58;101346.53;;;16.12;75.45
13612;BME280;6877;51.436;6.774;2022-08-21T06:44:30;101347.09;;;16.22;75.03
13612;BME280;6877;51.436;6.774;2022-08-21T06:47:01;101357.31;;;16.33;73.88
13612;BME280;6877;51.436;6.774;2022-08-21T06:49:33;101349.97;;;16.42;73.08
13612;BME280;6877;51.436;6.774;2022-08-21T06:52:15;101363.66;;;16.54;72.03
13612;BME280;6877;51.436;6.774;2022-08-21T06:54:46;101353.81;;;16.59;72.13
13612;BME280;6877;51.436;6.774;2022-08-21T06:57:18;101351.75;;;16.67;71.77
13612;BME280;6877;51.436;6.774;2022-08-21T06:59:49;101348.63;;;16.82;71.14
13612;BME280;6877;51.436;6.774;2022-08-21T07:02:16;101348.25;;;16.93;70.56
13612;BME280;6877;51.436;6.774;2022-08-21T07:04:48;101348.72;;;17.04;70.36
13612;BME280;6877;51.436;6.774;2022-08-21T07:07:19;101350.00;;;17.18;69.46
13612;BME280;6877;51.436;6.774;2022-08-21T07:09:51;101339.72;;;17.33;68.86
13612;BME280;6877;51.436;6.774;2022-08-21T07:12:22;101341.00;;;17.47;68.05
13612;BME280;6877;51.436;6.774;2022-08-21T07:14:54;101342.75;;;17.70;67.26
13612;BME280;6877;51.436;6.774;2022-08-21T07:17:26;101351.19;;;18.03;65.67
13612;BME280;6877;51.436;6.774;2022-08-21T07:19:57;101348.53;;;18.03;65.34
13612;BME280;6877;51.436;6.774;2022-08-21T07:22:29;101351.41;;;17.97;65.44
13612;BME280;6877;51.436;6.774;2022-08-21T07:25:00;101348.41;;;18.06;65.26
13612;BME280;6877;51.436;6.774;2022-08-21T07:27:32;101346.13;;;18.19;64.34
13612;BME280;6877;51.436;6.774;2022-08-21T07:30:05;101347.13;;;18.38;63.38
13612;BME280;6877;51.436;6.774;2022-08-21T07:32:32;101350.25;;;18.48;63.01
13612;BME280;6877;51.436;6.774;2022-08-21T07:35:04;101346.28;;;18.58;62.52
13612;BME280;6877;51.436;6.774;2022-08-21T07:37:35;101349.97;;;18.76;61.97
13612;BME280;6877;51.436;6.774;2022-08-21T07:40:07;101347.69;;;18.87;61.40
13612;BME280;6877;51.436;6.774;2022-08-21T07:42:41;101347.38;;;18.95;60.72
13612;BME280;6877;51.436;6.774;2022-08-21T07:45:13;101345.09;;;19.06;60.67
13612;BME280;6877;51.436;6.774;2022-08-21T07:47:45;101343.81;;;19.15;59.33
13612;BME280;6877;51.436;6.774;2022-08-21T07:50:17;101341.19;;;19.34;58.21
13612;BME280;6877;51.436;6.774;2022-08-21T07:52:44;101350.03;;;19.53;56.80
13612;BME280;6877;51.436;6.774;2022-08-21T07:55:22;101340.22;;;19.93;54.70
13612;BME280;6877;51.436;6.774;2022-08-21T07:57:54;101344.25;;;20.73;52.92
13612;BME280;6877;51.436;6.774;2022-08-21T08:00:27;101333.50;;;21.42;51.25
13612;BME280;6877;51.436;6.774;2022-08-21T08:02:59;101338.59;;;22.40;49.13
13612;BME280;6877;51.436;6.774;2022-08-21T08:05:31;101324.97;;;24.44;44.68
13612;BME280;6877;51.436;6.774;2022-08-21T08:08:03;101324.00;;;27.59;38.64
13612;BME280;6877;51.436;6.774;2022-08-21T08:10:38;101326.78;;;29.88;32.44
13612;BME280;6877;51.436;6.774;2022-08-21T08:13:10;101330.34;;;31.78;30.48
13612;BME280;6877;51.436;6.774;2022-08-21T08:15:36;101333.56;;;32.27;28.14
13612;BME280;6877;51.436;6.774;2022-08-21T08:18:08;101327.81;;;33.18;26.96
13612;BME280;6877;51.436;6.774;2022-08-21T08:20:40;101325.75;;;34.29;24.67
13612;BME280;6877;51.436;6.774;2022-08-21T08:23:13;101328.84;;;35.93;23.51
13612;BME280;6877;51.436;6.774;2022-08-21T08:25:40;101326.53;;;37.33;21.95
13612;BME280;6877;51.436;6.774;2022-08-21T08:28:12;101334.81;;;38.34;20.17
13612;BME280;6877;51.436;6.774;2022-08-21T08:30:46;101342.13;;;39.53;18.57
13612;BME280;6877;51.436;6.774;2022-08-21T08:33:18;101331.97;;;40.41;17.93
13612;BME280;6877;51.436;6.774;2022-08-21T08:35:50;101337.91;;;40.25;17.89
13612;BME280;6877;51.436;6.774;2022-08-21T08:38:24;101329.03;;;40.69;17.07
13612;BME280;6877;51.436;6.774;2022-08-21T08:43:34;101323.59;;;39.55;17.88
13612;BME280;6877;51.436;6.774;2022-08-21T08:46:12;101324.41;;;40.37;17.25
13612;BME280;6877;51.436;6.774;2022-08-21T08:48:55;101324.19;;;41.43;16.29
13612;BME280;6877;51.436;6.774;2022-08-21T08:54:07;101314.69;;;41.84;15.00
13612;BME280;6877;51.436;6.774;2022-08-21T08:56:40;101317.16;;;40.95;16.29
13612;BME280;6877;51.436;6.774;2022-08-21T08:59:16;101313.28;;;39.57;17.55
13612;BME280;6877;51.436;6.774;2022-08-21T09:01:49;101314.69;;;38.42;18.86
13612;BME280;6877;51.436;6.774;2022-08-21T09:04:25;101320.44;;;35.80;21.04
13612;BME280;6877;51.436;6.774;2022-08-21T09:07:12;101309.69;;;33.61;23.43
13612;BME280;6877;51.436;6.774;2022-08-21T09:10:11;101305.03;;;33.45;23.85
13612;BME280;6877;51.436;6.774;2022-08-21T09:21:19;101296.50;;;39.73;17.88
13612;BME280;6877;51.436;6.774;2022-08-21T09:27:04;101303.69;;;42.84;14.70
13612;BME280;6877;51.436;6.774;2022-08-21T09:29:40;101308.00;;;43.17;14.54
13612;BME280;6877;51.436;6.774;2022-08-21T09:32:25;101302.56;;;43.89;13.87
13612;BME280;6877;51.436;6.774;2022-08-21T09:35:08;101302.47;;;42.98;14.52
13612;BME280;6877;51.436;6.774;2022-08-21T09:40:47;101300.09;;;40.87;15.54
13612;BME280;6877;51.436;6.774;2022-08-21T09:43:23;101299.06;;;40.48;16.41
13612;BME280;6877;51.436;6.774;2022-08-21T09:51:15;101288.53;;;40.05;16.29
13612;BME280;6877;51.436;6.774;2022-08-21T09:53:51;101290.84;;;38.85;16.98
13612;BME280;6877;51.436;6.774;2022-08-21T09:56:54;101284.72;;;39.86;16.49
13612;BME280;6877;51.436;6.774;2022-08-21T09:59:44;101282.81;;;40.13;16.33
13612;BME280;6877;51.436;6.774;2022-08-21T10:04:53;101268.69;;;39.76;15.98
13612;BME280;6877;51.436;6.774;2022-08-21T10:07:28;101283.72;;;40.20;16.24
13612;BME280;6877;51.436;6.774;2022-08-21T10:10:09;101277.53;;;40.45;15.86
13612;BME280;6877;51.436;6.774;2022-08-21T10:18:29;101265.72;;;39.91;16.43
13612;BME280;6877;51.436;6.774;2022-08-21T10:23:54;101276.94;;;38.59;17.21
13612;BME280;6877;51.436;6.774;2022-08-21T10:26:45;101266.06;;;38.37;17.47
13612;BME280;6877;51.436;6.774;2022-08-21T10:37:48;101263.63;;;38.49;17.82
13612;BME280;6877;51.436;6.774;2022-08-21T10:43:30;101253.53;;;37.42;19.00
13612;BME280;6877;51.436;6.774;2022-08-21T10:48:56;101257.16;;;35.47;20.57
13612;BME280;6877;51.436;6.774;2022-08-21T10:57:11;101252.41;;;34.62;21.92
13612;BME280;6877;51.436;6.774;2022-08-21T10:59:57;101259.44;;;33.49;22.66
13612;BME280;6877;51.436;6.774;2022-08-21T11:02:45;101254.47;;;31.52;25.43
13612;BME280;6877;51.436;6.774;2022-08-21T11:05:33;101247.88;;;31.09;25.83
13612;BME280;6877;51.436;6.774;2022-08-21T11:08:11;101257.50;;;30.37;27.25
13612;BME280;6877;51.436;6.774;2022-08-21T11:10:50;101254.66;;;29.80;28.61
13612;BME280;6877;51.436;6.774;2022-08-21T11:13:47;101250.94;;;29.71;28.71
13612;BME280;6877;51.436;6.774;2022-08-21T11:16:58;101264.28;;;30.41;27.64
13612;BME280;6877;51.436;6.774;2022-08-21T11:19:36;101253.19;;;31.56;25.60
13612;BME280;6877;51.436;6.774;2022-08-21T11:30:24;101256.25;;;33.11;23.10
13612;BME280;6877;51.436;6.774;2022-08-21T11:35:38;101253.47;;;30.98;25.43
13612;BME280;6877;51.436;6.774;2022-08-21T11:41:31;101248.47;;;28.78;29.67
13612;BME280;6877;51.436;6.774;2022-08-21T11:47:18;101249.25;;;27.85;31.44
13612;BME280;6877;51.436;6.774;2022-08-21T11:52:43;101253.88;;;28.15;31.02
13612;BME280;6877;51.436;6.774;2022-08-21T11:55:32;101245.56;;;27.86;32.37
13612;BME280;6877;51.436;6.774;2022-08-21T11:58:14;101239.56;;;27.93;31.78
13612;BME280;6877;51.436;6.774;2022-08-21T12:00:47;101244.53;;;27.66;32.28
13612;BME280;6877;51.436;6.774;2022-08-21T12:03:33;101242.81;;;27.65;32.58
13612;BME280;6877;51.436;6.774;2022-08-21T12:06:12;101239.41;;;27.52;32.83
13612;BME280;6877;51.436;6.774;2022-08-21T12:08:45;101236.19;;;27.80;32.12
13612;BME280;6877;51.436;6.774;2022-08-21T12:16:40;101233.25;;;27.72;32.68
13612;BME280;6877;51.436;6.774;2022-08-21T12:22:07;101236.72;;;27.63;32.39
13612;BME280;6877;51.436;6.774;2022-08-21T12:24:47;101229.22;;;27.34;32.12
13612;BME280;6877;51.436;6.774;2022-08-21T12:27:29;101224.09;;;27.31;32.54
13612;BME280;6877;51.436;6.774;2022-08-21T12:30:06;101225.28;;;27.38;32.32
13612;BME280;6877;51.436;6.774;2022-08-21T12:35:16;101227.75;;;26.63;32.84
13612;BME280;6877;51.436;6.774;2022-08-21T12:37:56;101231.59;;;26.47;33.17
13612;BME280;6877;51.436;6.774;2022-08-21T12:40:39;101229.69;;;26.61;32.60
13612;BME280;6877;51.436;6.774;2022-08-21T12:43:13;101226.31;;;26.81;32.90
13612;BME280;6877;51.436;6.774;2022-08-21T12:45:49;101217.88;;;26.63;33.81
13612;BME280;6877;51.436;6.774;2022-08-21T12:48:51;101220.19;;;26.68;33.89
13612;BME280;6877;51.436;6.774;2022-08-21T12:51:24;101228.50;;;26.87;33.58
13612;BME280;6877;51.436;6.774;2022-08-21T12:53:59;101220.19;;;27.01;33.41
13612;BME280;6877;51.436;6.774;2022-08-21T12:56:33;101217.28;;;26.93;33.54
13612;BME280;6877;51.436;6.774;2022-08-21T12:59:11;101216.53;;;26.69;33.85
13612;BME280;6877;51.436;6.774;2022-08-21T13:01:48;101209.44;;;26.56;34.23
13612;BME280;6877;51.436;6.774;2022-08-21T13:04:35;101220.38;;;26.42;34.35
13612;BME280;6877;51.436;6.774;2022-08-21T13:07:07;101222.13;;;26.54;34.45
13612;BME280;6877;51.436;6.774;2022-08-21T13:09:47;101221.81;;;26.24;35.02
13612;BME280;6877;51.436;6.774;2022-08-21T13:12:15;101221.28;;;26.54;34.46
13612;BME280;6877;51.436;6.774;2022-08-21T13:14:50;101219.72;;;26.74;34.33
13612;BME280;6877;51.436;6.774;2022-08-21T13:17:24;101221.53;;;26.73;34.76
13612;BME280;6877;51.436;6.774;2022-08-21T13:20:02;101214.56;;;27.04;33.80
13612;BME280;6877;51.436;6.774;2022-08-21T13:22:41;101204.38;;;27.42;33.52
13612;BME280;6877;51.436;6.774;2022-08-21T13:25:15;101206.97;;;27.43;33.24
13612;BME280;6877;51.436;6.774;2022-08-21T13:28:16;101205.53;;;26.94;33.74
13612;BME280;6877;51.436;6.774;2022-08-21T13:30:48;101206.00;;;27.11;33.55
13612;BME280;6877;51.436;6.774;2022-08-21T13:33:24;101200.25;;;27.26;32.99
13612;BME280;6877;51.436;6.774;2022-08-21T13:38:42;101194.31;;;27.12;32.27
13612;BME280;6877;51.436;6.774;2022-08-21T13:43:46;101198.72;;;26.90;32.42
13612;BME280;6877;51.436;6.774;2022-08-21T13:46:21;101191.88;;;26.86;32.31
13612;BME280;6877;51.436;6.774;2022-08-21T13:48:54;101199.44;;;26.92;32.30
13612;BME280;6877;51.436;6.774;2022-08-21T13:51:27;101194.94;;;26.93;32.46
13612;BME280;6877;51.436;6.774;2022-08-21T13:53:59;101194.81;;;26.72;32.69
13612;BME280;6877;51.436;6.774;2022-08-21T13:56:40;101191.34;;;26.47;33.00
13612;BME280;6877;51.436;6.774;2022-08-21T13:59:23;101185.06;;;26.13;33.82
13612;BME280;6877;51.436;6.774;2022-08-21T14:02:14;101197.00;;;25.98;33.90
13612;BME280;6877;51.436;6.774;2022-08-21T14:04:54;101199.41;;;25.89;33.98
13612;BME280;6877;51.436;6.774;2022-08-21T14:07:33;101196.50;;;26.04;33.94
13612;BME280;6877;51.436;6.774;2022-08-21T14:10:07;101200.34;;;26.24;33.49
13612;BME280;6877;51.436;6.774;2022-08-21T14:12:53;101204.97;;;26.10;33.92
13612;BME280;6877;51.436;6.774;2022-08-21T14:15:29;101206.22;;;25.94;34.40
13612;BME280;6877;51.436;6.774;2022-08-21T14:18:17;101194.88;;;25.90;34.47
13612;BME280;6877;51.436;6.774;2022-08-21T14:20:49;101198.31;;;26.03;34.12
13612;BME280;6877;51.436;6.774;2022-08-21T14:23:24;101193.75;;;26.17;33.98
13612;BME280;6877;51.436;6.774;2022-08-21T14:26:02;101200.28;;;26.01;35.98
13612;BME280;6877;51.436;6.774;2022-08-21T14:28:40;101191.91;;;26.17;35.55
13612;BME280;6877;51.436;6.774;2022-08-21T14:31:15;101183.94;;;26.62;35.41
13612;BME280;6877;51.436;6.774;2022-08-21T14:33:48;101191.63;;;27.12;34.19
13612;BME280;6877;51.436;6.774;2022-08-21T14:36:19;101191.84;;;27.31;33.55
13612;BME280;6877;51.436;6.774;2022-08-21T14:38:51;101186.63;;;26.96;33.62
13612;BME280;6877;51.436;6.774;2022-08-21T14:41:25;101196.25;;;26.98;33.73
13612;BME280;6877;51.436;6.774;2022-08-21T14:43:58;101187.81;;;27.37;33.20
13612;BME280;6877;51.436;6.774;2022-08-21T14:46:27;101181.56;;;27.36;33.09
13612;BME280;6877;51.436;6.774;2022-08-21T14:48:59;101182.09;;;27.19;33.14
13612;BME280;6877;51.436;6.774;2022-08-21T14:51:30;101181.13;;;26.75;33.79
13612;BME280;6877;51.436;6.774;2022-08-21T14:54:02;101181.00;;;26.54;34.47
13612;BME280;6877;51.436;6.774;2022-08-21T14:56:28;101175.47;;;26.44;34.95
13612;BME280;6877;51.436;6.774;2022-08-21T14:59:04;101176.50;;;26.54;34.54
13612;BME280;6877;51.436;6.774;2022-08-21T15:01:38;101186.47;;;26.41;34.73
13612;BME280;6877;51.436;6.774;2022-08-21T15:04:10;101170.50;;;26.40;34.64
13612;BME280;6877;51.436;6.774;2022-08-21T15:06:42;101167.09;;;26.60;34.32